createdAt,value
2024-01-03T00:00:27.323Z,26.86
2024-01-03T00:01:29.100Z,26.85
2024-01-03T00:02:27.406Z,26.87
2024-01-03T00:03:27.353Z,26.86
2024-01-03T00:04:27.359Z,26.86
2024-01-03T00:05:27.401Z,26.87
2024-01-03T00:06:27.340Z,26.86
2024-01-03T00:07:27.330Z,26.87
2024-01-03T00:08:27.392Z,26.86
2024-01-03T00:09:27.387Z,26.86
2024-01-03T00:10:27.368Z,26.86
2024-01-03T00:11:27.367Z,26.87
2024-01-03T00:12:27.369Z,26.85
2024-01-03T00:13:27.351Z,26.85
2024-01-03T00:14:27.413Z,26.87
2024-01-03T00:15:27.368Z,26.86
2024-01-03T00:16:27.348Z,26.87
2024-01-03T00:17:27.459Z,26.85
2024-01-03T00:18:27.408Z,26.87
2024-01-03T00:19:27.451Z,26.86
2024-01-03T00:20:27.387Z,26.87
2024-01-03T00:21:27.741Z,26.85
2024-01-03T00:22:33.627Z,26.86
2024-01-03T00:23:28.378Z,26.86
2024-01-03T00:24:27.346Z,26.85
2024-01-03T00:25:27.400Z,26.87
2024-01-03T00:26:27.390Z,26.90
2024-01-03T00:27:27.398Z,26.87
2024-01-03T00:28:27.356Z,26.86
2024-01-03T00:29:27.439Z,26.85
2024-01-03T00:30:27.497Z,26.83
2024-01-03T00:31:27.380Z,26.83
2024-01-03T00:32:27.404Z,26.85
2024-01-03T00:33:27.480Z,26.83
2024-01-03T00:34:27.629Z,26.85
2024-01-03T00:35:27.521Z,26.87
2024-01-03T00:36:27.506Z,26.85
2024-01-03T00:37:27.532Z,26.85
2024-01-03T00:38:27.596Z,26.85
2024-01-03T00:39:27.651Z,26.83
2024-01-03T00:40:27.665Z,26.86
2024-01-03T00:41:27.758Z,26.85
2024-01-03T00:42:27.833Z,26.80
2024-01-03T00:43:27.834Z,26.86
2024-01-03T00:44:27.918Z,26.87
2024-01-03T00:45:27.960Z,26.83
2024-01-03T00:46:28.000Z,26.85
2024-01-03T00:47:28.105Z,26.85
2024-01-03T00:48:28.283Z,26.83
2024-01-03T00:49:28.214Z,26.85
2024-01-03T00:50:28.221Z,26.85
2024-01-03T00:51:28.213Z,26.83
2024-01-03T00:52:28.252Z,26.85
2024-01-03T00:53:56.235Z,26.82
2024-01-03T00:54:56.216Z,26.83
2024-01-03T00:55:56.269Z,26.85
2024-01-03T00:56:56.330Z,26.85
2024-01-03T00:57:56.382Z,26.85
2024-01-03T00:58:56.503Z,26.83
2024-01-03T00:59:56.468Z,26.82
2024-01-03T01:00:56.571Z,26.86
2024-01-03T01:01:56.563Z,26.85
2024-01-03T01:02:56.595Z,26.85
2024-01-03T01:03:56.674Z,26.83
2024-01-03T01:04:56.767Z,26.87
2024-01-03T01:05:56.962Z,26.83
2024-01-03T01:06:56.802Z,26.85
2024-01-03T01:07:56.871Z,26.86
2024-01-03T01:08:56.928Z,26.86
2024-01-03T01:09:56.952Z,26.83
2024-01-03T01:10:57.004Z,26.86
2024-01-03T01:11:57.113Z,26.86
2024-01-03T01:12:57.116Z,26.87
2024-01-03T01:13:57.128Z,26.85
2024-01-03T01:14:57.253Z,26.86
2024-01-03T01:15:57.244Z,26.85
2024-01-03T01:16:57.286Z,26.85
2024-01-03T01:17:57.533Z,26.86
2024-01-03T01:18:57.461Z,26.85
2024-01-03T01:19:57.412Z,26.85
2024-01-03T01:20:57.545Z,26.85
2024-01-03T01:21:57.517Z,26.85
2024-01-03T01:22:57.723Z,26.86
2024-01-03T01:23:57.694Z,26.83
2024-01-03T01:24:57.694Z,26.86
2024-01-03T01:25:57.722Z,26.85
2024-01-03T01:26:57.959Z,26.82
2024-01-03T01:27:57.864Z,26.85
2024-01-03T01:28:57.921Z,26.86
2024-01-03T01:29:58.010Z,26.85
2024-01-03T01:30:58.024Z,26.85
2024-01-03T01:31:58.076Z,26.82
2024-01-03T01:32:58.150Z,26.83
2024-01-03T01:33:58.301Z,26.83
2024-01-03T01:34:58.254Z,26.86
2024-01-03T01:35:58.325Z,26.85
2024-01-03T01:36:58.316Z,26.86
2024-01-03T01:37:58.385Z,26.83
2024-01-03T01:38:58.393Z,26.85
2024-01-03T01:39:58.462Z,26.83
2024-01-03T01:40:58.499Z,26.85
2024-01-03T01:41:58.594Z,26.83
2024-01-03T01:42:58.592Z,26.85
2024-01-03T01:43:58.646Z,26.83
2024-01-03T01:44:58.678Z,26.86
2024-01-03T01:45:58.828Z,26.83
2024-01-03T01:46:58.808Z,26.83
2024-01-03T01:47:59.009Z,26.83
2024-01-03T01:48:59.042Z,26.85
2024-01-03T01:49:58.948Z,26.83
2024-01-03T01:50:59.018Z,26.83
2024-01-03T01:51:59.022Z,26.82
2024-01-03T01:52:59.063Z,26.82
2024-01-03T01:53:59.232Z,26.82
2024-01-03T01:54:59.184Z,26.83
2024-01-03T01:55:59.261Z,26.83
2024-01-03T01:56:59.337Z,26.82
2024-01-03T01:57:59.337Z,26.80
2024-01-03T01:58:59.407Z,26.82
2024-01-03T01:59:59.459Z,26.83
2024-01-03T02:00:59.523Z,26.80
2024-01-03T02:01:59.561Z,26.80
2024-01-03T02:02:59.663Z,26.83
2024-01-03T02:03:59.680Z,26.82
2024-01-03T02:04:59.846Z,26.80
2024-01-03T02:05:59.790Z,26.80
2024-01-03T02:06:59.814Z,26.80
2024-01-03T02:07:59.893Z,26.82
2024-01-03T02:08:59.980Z,26.79
2024-01-03T02:10:00.014Z,26.82
2024-01-03T02:11:00.049Z,26.80
2024-01-03T02:12:00.154Z,26.80
2024-01-03T02:13:00.102Z,26.82
2024-01-03T02:14:00.229Z,26.79
2024-01-03T02:15:00.323Z,26.82
2024-01-03T02:16:00.278Z,26.79
2024-01-03T02:17:00.323Z,26.80
2024-01-03T02:18:00.555Z,26.80
2024-01-03T02:19:00.522Z,26.78
2024-01-03T02:20:00.488Z,26.78
2024-01-03T02:21:00.776Z,26.79
2024-01-03T02:22:00.600Z,26.80
2024-01-03T02:23:00.631Z,26.78
2024-01-03T02:24:00.707Z,26.79
2024-01-03T02:25:00.725Z,26.80
2024-01-03T02:26:07.343Z,26.79
2024-01-03T02:27:01.853Z,26.80
2024-01-03T02:28:00.760Z,26.80
2024-01-03T02:29:00.798Z,26.82
2024-01-03T02:30:00.847Z,26.85
2024-01-03T02:31:00.823Z,26.83
2024-01-03T02:32:00.797Z,26.83
2024-01-03T02:33:00.956Z,26.85
2024-01-03T02:34:00.879Z,26.87
2024-01-03T02:35:00.810Z,26.87
2024-01-03T02:36:00.854Z,26.87
2024-01-03T02:37:00.835Z,26.91
2024-01-03T02:38:00.793Z,26.94
2024-01-03T02:39:00.866Z,26.94
2024-01-03T02:40:00.799Z,26.96
2024-01-03T02:41:00.815Z,26.97
2024-01-03T02:42:00.871Z,27.01
2024-01-03T02:43:00.833Z,27.01
2024-01-03T02:44:00.759Z,27.03
2024-01-03T02:45:00.939Z,27.06
2024-01-03T02:46:00.830Z,27.07
2024-01-03T02:47:00.862Z,27.07
2024-01-03T02:48:01.012Z,27.06
2024-01-03T02:49:00.959Z,27.10
2024-01-03T02:50:01.058Z,27.13
2024-01-03T02:51:00.951Z,27.14
2024-01-03T02:52:00.908Z,27.14
2024-01-03T02:53:00.954Z,27.14
2024-01-03T02:54:01.037Z,27.17
2024-01-03T02:55:01.050Z,27.17
2024-01-03T02:56:01.104Z,27.18
2024-01-03T02:57:01.201Z,27.20
2024-01-03T02:58:01.217Z,27.20
2024-01-03T02:59:01.238Z,27.18
2024-01-03T03:00:01.399Z,27.21
2024-01-03T03:01:01.439Z,27.23
2024-01-03T03:02:01.396Z,27.24
2024-01-03T03:03:01.464Z,27.23
2024-01-03T03:04:01.643Z,27.27
2024-01-03T03:05:01.544Z,27.24
2024-01-03T03:06:01.687Z,27.24
2024-01-03T03:07:01.728Z,27.27
2024-01-03T03:08:01.696Z,27.24
2024-01-03T03:09:12.916Z,27.26
2024-01-03T03:10:02.775Z,27.29
2024-01-03T03:11:01.806Z,27.29
2024-01-03T03:12:01.792Z,27.26
2024-01-03T03:13:01.781Z,27.26
2024-01-03T03:14:01.761Z,27.29
2024-01-03T03:15:01.858Z,27.27
2024-01-03T03:16:01.816Z,27.27
2024-01-03T03:17:01.773Z,27.27
2024-01-03T03:18:02.027Z,27.26
2024-01-03T03:19:02.047Z,27.24
2024-01-03T03:20:01.969Z,27.24
2024-01-03T03:21:02.094Z,27.26
2024-01-03T03:22:02.122Z,27.26
2024-01-03T03:23:02.162Z,27.26
2024-01-03T03:24:02.407Z,27.27
2024-01-03T03:25:02.284Z,27.23
2024-01-03T03:26:02.364Z,27.27
2024-01-03T03:27:02.442Z,27.23
2024-01-03T03:28:02.477Z,27.26
2024-01-03T03:29:02.543Z,27.24
2024-01-03T03:30:02.676Z,27.27
2024-01-03T03:31:02.700Z,27.31
2024-01-03T03:32:02.696Z,27.30
2024-01-03T03:33:02.858Z,27.27
2024-01-03T03:34:02.841Z,27.23
2024-01-03T03:35:02.910Z,27.26
2024-01-03T03:36:03.074Z,27.27
2024-01-03T03:37:02.970Z,27.29
2024-01-03T03:38:03.042Z,27.30
2024-01-03T03:39:03.149Z,27.33
2024-01-03T03:40:03.127Z,27.36
2024-01-03T03:41:03.197Z,27.34
2024-01-03T03:42:03.353Z,27.37
2024-01-03T03:43:03.322Z,27.40
2024-01-03T03:44:03.405Z,27.40
2024-01-03T03:45:03.545Z,27.38
2024-01-03T03:46:03.488Z,27.40
2024-01-03T03:47:03.559Z,27.40
2024-01-03T03:48:03.690Z,27.43
2024-01-03T03:49:03.746Z,27.44
2024-01-03T03:50:03.676Z,27.44
2024-01-03T03:51:03.750Z,27.43
2024-01-03T03:52:03.820Z,27.40
2024-01-03T03:53:03.866Z,27.40
2024-01-03T03:54:03.966Z,27.38
2024-01-03T03:55:04.004Z,27.36
2024-01-03T03:56:04.032Z,27.37
2024-01-03T03:57:04.161Z,27.34
2024-01-03T03:58:04.139Z,27.31
2024-01-03T03:59:04.174Z,27.31
2024-01-03T04:00:04.298Z,27.31
2024-01-03T04:01:04.316Z,27.34
2024-01-03T04:02:04.352Z,27.34
2024-01-03T04:03:04.389Z,27.34
2024-01-03T04:04:04.484Z,27.40
2024-01-03T04:05:04.515Z,27.38
2024-01-03T04:06:04.623Z,27.34
2024-01-03T04:07:04.610Z,27.38
2024-01-03T04:08:04.626Z,27.36
2024-01-03T04:09:04.714Z,27.38
2024-01-03T04:10:04.731Z,27.40
2024-01-03T04:11:04.775Z,27.41
2024-01-03T04:12:04.802Z,27.43
2024-01-03T04:13:04.874Z,27.43
2024-01-03T04:14:04.941Z,27.45
2024-01-03T04:15:04.934Z,27.45
2024-01-03T04:16:04.988Z,27.45
2024-01-03T04:17:05.062Z,27.47
2024-01-03T04:18:05.168Z,27.47
2024-01-03T04:19:05.250Z,27.48
2024-01-03T04:20:05.188Z,27.51
2024-01-03T04:21:05.226Z,27.51
2024-01-03T04:22:05.192Z,27.51
2024-01-03T04:23:05.236Z,27.51
2024-01-03T04:24:05.348Z,27.50
2024-01-03T04:25:05.334Z,27.54
2024-01-03T04:26:05.356Z,27.53
2024-01-03T04:27:05.424Z,27.55
2024-01-03T04:28:05.473Z,27.54
2024-01-03T04:29:05.497Z,27.53
2024-01-03T04:30:05.625Z,27.54
2024-01-03T04:31:05.657Z,27.54
2024-01-03T04:32:05.605Z,27.54
2024-01-03T04:33:05.788Z,27.53
2024-01-03T04:34:05.702Z,27.53
2024-01-03T04:35:13.477Z,27.50
2024-01-03T04:36:13.439Z,27.51
2024-01-03T04:37:13.460Z,27.51
2024-01-03T04:38:13.449Z,27.50
2024-01-03T04:39:13.471Z,27.51
2024-01-03T04:40:13.471Z,27.51
2024-01-03T04:41:13.482Z,27.48
2024-01-03T04:42:13.493Z,27.50
2024-01-03T04:43:13.453Z,27.48
2024-01-03T04:44:13.490Z,27.45
2024-01-03T04:45:13.475Z,27.47
2024-01-03T04:46:13.474Z,27.44
2024-01-03T04:47:13.512Z,27.51
2024-01-03T04:48:13.925Z,27.50
2024-01-03T04:49:13.553Z,27.53
2024-01-03T04:50:13.506Z,27.55
2024-01-03T04:51:14.382Z,27.57
2024-01-03T04:52:13.484Z,27.58
2024-01-03T04:53:13.526Z,27.57
2024-01-03T04:54:13.511Z,27.61
2024-01-03T04:55:13.472Z,27.64
2024-01-03T04:56:13.508Z,27.64
2024-01-03T04:57:13.626Z,27.64
2024-01-03T04:58:13.532Z,27.62
2024-01-03T04:59:13.497Z,27.61
2024-01-03T05:00:13.526Z,27.62
2024-01-03T05:01:13.546Z,27.60
2024-01-03T05:02:13.527Z,27.62
2024-01-03T05:03:13.702Z,27.60
2024-01-03T05:04:13.645Z,27.60
2024-01-03T05:05:13.677Z,27.62
2024-01-03T05:06:13.861Z,27.62
2024-01-03T05:07:13.757Z,27.62
2024-01-03T05:08:13.845Z,27.61
2024-01-03T05:09:13.862Z,27.64
2024-01-03T05:10:13.926Z,27.64
2024-01-03T05:11:17.291Z,27.65
2024-01-03T05:12:13.993Z,27.64
2024-01-03T05:13:14.004Z,27.64
2024-01-03T05:14:13.985Z,27.62
2024-01-03T05:15:13.989Z,27.64
2024-01-03T05:16:14.069Z,27.64
2024-01-03T05:17:14.007Z,27.62
2024-01-03T05:18:14.453Z,27.64
2024-01-03T05:19:14.153Z,27.61
2024-01-03T05:20:13.981Z,27.64
2024-01-03T05:21:13.999Z,27.62
2024-01-03T05:22:13.996Z,27.64
2024-01-03T05:23:13.987Z,27.62
2024-01-03T05:24:14.024Z,27.65
2024-01-03T05:25:14.030Z,27.65
2024-01-03T05:26:14.079Z,27.65
2024-01-03T05:27:13.986Z,27.66
2024-01-03T05:28:13.995Z,27.66
2024-01-03T05:29:13.985Z,27.66
2024-01-03T05:30:14.175Z,27.66
2024-01-03T05:31:13.998Z,27.64
2024-01-03T05:32:13.990Z,27.65
2024-01-03T05:33:14.130Z,27.65
2024-01-03T05:34:14.015Z,27.66
2024-01-03T05:35:14.002Z,27.68
2024-01-03T05:36:14.105Z,27.68
2024-01-03T05:37:13.994Z,27.68
2024-01-03T05:38:14.004Z,27.68
2024-01-03T05:39:14.017Z,27.65
2024-01-03T05:40:14.027Z,27.68
2024-01-03T05:41:14.049Z,27.68
2024-01-03T05:42:13.994Z,27.66
2024-01-03T05:43:13.988Z,27.66
2024-01-03T05:44:14.004Z,27.66
2024-01-03T05:45:14.097Z,27.66
2024-01-03T05:46:14.177Z,27.66
2024-01-03T05:47:14.207Z,27.68
2024-01-03T05:48:14.648Z,27.66
2024-01-03T05:49:14.435Z,27.64
2024-01-03T05:50:14.407Z,27.64
2024-01-03T05:51:14.422Z,27.65
2024-01-03T05:52:14.533Z,27.66
2024-01-03T05:53:14.589Z,27.66
2024-01-03T05:54:14.633Z,27.65
2024-01-03T05:55:14.714Z,27.66
2024-01-03T05:56:14.736Z,27.65
2024-01-03T05:57:14.835Z,27.64
2024-01-03T05:58:14.859Z,27.65
2024-01-03T05:59:14.940Z,27.65
2024-01-03T06:00:15.007Z,27.64
2024-01-03T06:01:37.746Z,27.62
2024-01-03T06:02:15.038Z,27.62
2024-01-03T06:03:15.235Z,27.62
2024-01-03T06:04:15.066Z,27.62
2024-01-03T06:05:15.064Z,27.62
2024-01-03T06:06:15.078Z,27.66
2024-01-03T06:07:15.080Z,27.64
2024-01-03T06:08:15.095Z,27.64
2024-01-03T06:09:15.033Z,27.64
2024-01-03T06:10:15.082Z,27.68
2024-01-03T06:11:15.046Z,27.65
2024-01-03T06:12:15.834Z,27.66
2024-01-03T06:13:15.082Z,27.62
2024-01-03T06:14:15.107Z,27.64
2024-01-03T06:15:15.114Z,27.65
2024-01-03T06:16:15.153Z,27.65
2024-01-03T06:17:15.186Z,27.64
2024-01-03T06:18:15.566Z,27.64
2024-01-03T06:19:15.369Z,27.64
2024-01-03T06:20:15.326Z,27.64
2024-01-03T06:21:15.451Z,27.64
2024-01-03T06:22:15.465Z,27.64
2024-01-03T06:23:15.533Z,27.62
2024-01-03T06:24:15.614Z,27.64
2024-01-03T06:25:15.616Z,27.64
2024-01-03T06:26:15.835Z,27.62
2024-01-03T06:27:15.864Z,27.61
2024-01-03T06:28:15.845Z,27.66
2024-01-03T06:29:15.962Z,27.61
2024-01-03T06:30:16.069Z,27.62
2024-01-03T06:31:16.098Z,27.62
2024-01-03T06:32:16.230Z,27.61
2024-01-03T06:33:16.289Z,27.62
2024-01-03T06:34:16.350Z,27.61
2024-01-03T06:35:16.393Z,27.60
2024-01-03T06:36:16.426Z,27.60
2024-01-03T06:37:16.474Z,27.61
2024-01-03T06:38:16.612Z,27.61
2024-01-03T06:39:16.588Z,27.61
2024-01-03T06:40:16.706Z,27.62
2024-01-03T06:41:16.796Z,27.62
2024-01-03T06:42:16.809Z,27.62
2024-01-03T06:43:16.915Z,27.61
2024-01-03T06:44:17.028Z,27.60
2024-01-03T06:45:17.033Z,27.61
2024-01-03T06:46:41.861Z,27.64
2024-01-03T06:47:17.161Z,27.61
2024-01-03T06:48:17.483Z,27.62
2024-01-03T06:49:17.176Z,27.61
2024-01-03T06:50:17.122Z,27.60
2024-01-03T06:51:17.088Z,27.61
2024-01-03T06:52:17.107Z,27.58
2024-01-03T06:53:17.135Z,27.60
2024-01-03T06:54:17.096Z,27.61
2024-01-03T06:55:17.126Z,27.61
2024-01-03T06:56:17.114Z,27.60
2024-01-03T06:57:17.222Z,27.60
2024-01-03T06:58:17.220Z,27.61
2024-01-03T06:59:17.321Z,27.62
2024-01-03T07:00:17.369Z,27.61
2024-01-03T07:01:17.492Z,27.62
2024-01-03T07:02:17.620Z,27.64
2024-01-03T07:03:17.648Z,27.61
2024-01-03T07:04:17.621Z,27.61
2024-01-03T07:05:17.729Z,27.62
2024-01-03T07:06:17.794Z,27.62
2024-01-03T07:07:17.861Z,27.62
2024-01-03T07:08:17.989Z,27.64
2024-01-03T07:09:17.941Z,27.62
2024-01-03T07:10:18.051Z,27.62
2024-01-03T07:11:18.090Z,27.65
2024-01-03T07:12:18.131Z,27.61
2024-01-03T07:13:18.203Z,27.61
2024-01-03T07:14:18.352Z,27.60
2024-01-03T07:15:18.372Z,27.60
2024-01-03T07:16:18.553Z,27.62
2024-01-03T07:17:18.572Z,27.64
2024-01-03T07:18:18.725Z,27.62
2024-01-03T07:19:18.695Z,27.62
2024-01-03T07:20:18.725Z,27.62
2024-01-03T07:21:18.720Z,27.61
2024-01-03T07:22:18.795Z,27.62
2024-01-03T07:23:18.934Z,27.62
2024-01-03T07:24:19.073Z,27.62
2024-01-03T07:25:19.055Z,27.61
2024-01-03T07:26:19.123Z,27.62
2024-01-03T07:27:19.231Z,27.62
2024-01-03T07:28:19.237Z,27.64
2024-01-03T07:29:19.307Z,27.64
2024-01-03T07:30:19.429Z,27.65
2024-01-03T07:31:19.408Z,27.64
2024-01-03T07:32:19.505Z,27.66
2024-01-03T07:33:19.586Z,27.64
2024-01-03T07:34:19.761Z,27.65
2024-01-03T07:35:19.673Z,27.65
2024-01-03T07:36:19.707Z,27.64
2024-01-03T07:37:19.813Z,27.64
2024-01-03T07:38:19.844Z,27.64
2024-01-03T07:39:19.895Z,27.66
2024-01-03T07:40:19.956Z,27.65
2024-01-03T07:41:20.178Z,27.65
2024-01-03T07:42:20.072Z,27.65
2024-01-03T07:43:20.133Z,27.65
2024-01-03T07:44:20.220Z,27.66
2024-01-03T07:45:20.308Z,27.66
2024-01-03T07:46:20.380Z,27.65
2024-01-03T07:47:20.512Z,27.65
2024-01-03T07:48:20.583Z,27.65
2024-01-03T07:49:20.759Z,27.66
2024-01-03T07:50:20.612Z,27.65
2024-01-03T07:51:20.655Z,27.64
2024-01-03T07:52:20.704Z,27.66
2024-01-03T07:53:20.850Z,27.62
2024-01-03T07:54:20.825Z,27.64
2024-01-03T07:55:20.952Z,27.64
2024-01-03T07:56:21.024Z,27.62
2024-01-03T07:57:21.084Z,27.62
2024-01-03T07:58:21.107Z,27.64
2024-01-03T07:59:21.253Z,27.65
2024-01-03T08:00:21.222Z,27.62
2024-01-03T08:01:21.385Z,27.66
2024-01-03T08:02:21.474Z,27.66
2024-01-03T08:03:21.534Z,27.65
2024-01-03T08:04:21.535Z,27.64
2024-01-03T08:05:21.764Z,27.65
2024-01-03T08:06:21.903Z,27.66
2024-01-03T08:07:21.749Z,27.69
2024-01-03T08:08:21.843Z,27.68
2024-01-03T08:09:21.874Z,27.66
2024-01-03T08:10:21.927Z,27.68
2024-01-03T08:11:22.022Z,27.66
2024-01-03T08:12:22.042Z,27.68
2024-01-03T08:13:22.120Z,27.68
2024-01-03T08:14:22.250Z,27.69
2024-01-03T08:15:22.227Z,27.68
2024-01-03T08:16:22.321Z,27.71
2024-01-03T08:17:22.394Z,27.71
2024-01-03T08:18:22.599Z,27.69
2024-01-03T08:19:22.709Z,27.64
2024-01-03T08:20:22.629Z,27.68
2024-01-03T08:21:22.700Z,27.69
2024-01-03T08:22:22.666Z,27.66
2024-01-03T08:23:22.765Z,27.71
2024-01-03T08:24:22.823Z,27.69
2024-01-03T08:25:23.007Z,27.71
2024-01-03T08:26:22.974Z,27.71
2024-01-03T08:27:23.029Z,27.77
2024-01-03T08:28:23.006Z,27.81
2024-01-03T08:29:23.155Z,27.88
2024-01-03T08:30:23.203Z,27.96
2024-01-03T08:31:23.241Z,28.01
2024-01-03T08:32:23.342Z,27.98
2024-01-03T08:33:23.400Z,28.05
2024-01-03T08:34:23.500Z,28.05
2024-01-03T08:35:23.475Z,28.05
2024-01-03T08:36:23.516Z,28.08
2024-01-03T08:37:24.261Z,28.09
2024-01-03T08:38:23.619Z,28.11
2024-01-03T08:39:23.617Z,28.15
2024-01-03T08:40:23.701Z,28.19
2024-01-03T08:41:23.849Z,28.18
2024-01-03T08:42:23.774Z,28.22
2024-01-03T08:43:23.850Z,28.25
2024-01-03T08:44:24.015Z,28.26
2024-01-03T08:45:23.957Z,28.23
2024-01-03T08:46:23.991Z,28.23
2024-01-03T08:47:24.197Z,28.25
2024-01-03T08:48:24.272Z,28.23
2024-01-03T08:49:24.306Z,28.26
2024-01-03T08:50:24.285Z,28.32
2024-01-03T08:51:24.301Z,28.32
2024-01-03T08:52:24.237Z,28.29
2024-01-03T08:53:24.255Z,28.35
2024-01-03T08:54:24.313Z,28.38
2024-01-03T08:55:24.299Z,28.38
2024-01-03T08:56:24.380Z,28.40
2024-01-03T08:57:24.436Z,28.40
2024-01-03T08:58:24.431Z,28.46
2024-01-03T08:59:24.483Z,28.46
2024-01-03T09:00:24.485Z,28.49
2024-01-03T09:01:24.503Z,28.50
2024-01-03T09:02:24.576Z,28.49
2024-01-03T09:03:24.619Z,28.55
2024-01-03T09:04:24.595Z,28.53
2024-01-03T09:05:24.662Z,28.56
2024-01-03T09:06:24.936Z,28.56
2024-01-03T09:07:24.753Z,28.55
2024-01-03T09:08:24.660Z,28.52
2024-01-03T09:09:24.661Z,28.57
2024-01-03T09:10:24.714Z,28.56
2024-01-03T09:11:24.798Z,28.53
2024-01-03T09:12:24.732Z,28.55
2024-01-03T09:13:24.730Z,28.55
2024-01-03T09:14:24.791Z,28.56
2024-01-03T09:15:24.747Z,28.53
2024-01-03T09:16:24.776Z,28.59
2024-01-03T09:17:24.878Z,28.57
2024-01-03T09:18:24.980Z,28.55
2024-01-03T09:19:25.002Z,28.59
2024-01-03T09:20:24.931Z,28.57
2024-01-03T09:21:24.866Z,28.57
2024-01-03T09:22:24.863Z,28.59
2024-01-03T09:23:24.898Z,28.59
2024-01-03T09:24:24.929Z,28.59
2024-01-03T09:25:24.930Z,28.60
2024-01-03T09:26:25.264Z,28.59
2024-01-03T09:27:24.942Z,28.59
2024-01-03T09:28:24.917Z,28.57
2024-01-03T09:29:25.044Z,28.60
2024-01-03T09:30:25.013Z,28.60
2024-01-03T09:31:24.973Z,28.57
2024-01-03T09:32:25.044Z,28.60
2024-01-03T09:33:25.084Z,28.59
2024-01-03T09:34:25.138Z,28.62
2024-01-03T09:35:25.070Z,28.62
2024-01-03T09:36:28.350Z,28.63
2024-01-03T09:37:25.078Z,28.64
2024-01-03T09:38:25.101Z,28.66
2024-01-03T09:39:25.075Z,28.67
2024-01-03T09:40:25.073Z,28.69
2024-01-03T09:41:25.209Z,28.70
2024-01-03T09:42:25.191Z,28.70
2024-01-03T09:43:25.094Z,28.74
2024-01-03T09:44:25.122Z,28.74
2024-01-03T09:45:25.102Z,28.74
2024-01-03T09:46:25.088Z,28.73
2024-01-03T09:47:25.504Z,28.76
2024-01-03T09:48:25.170Z,28.74
2024-01-03T09:49:25.252Z,28.77
2024-01-03T09:50:25.068Z,28.77
2024-01-03T09:51:25.068Z,28.79
2024-01-03T09:52:25.049Z,28.79
2024-01-03T09:53:25.122Z,28.79
2024-01-03T09:54:25.072Z,28.81
2024-01-03T09:55:25.079Z,28.81
2024-01-03T09:56:25.196Z,28.84
2024-01-03T09:57:25.094Z,28.86
2024-01-03T09:58:25.110Z,28.83
2024-01-03T09:59:25.058Z,28.84
2024-01-03T10:00:25.069Z,28.87
2024-01-03T10:01:25.092Z,28.84
2024-01-03T10:02:25.172Z,28.89
2024-01-03T10:03:25.200Z,28.89
2024-01-03T10:04:25.092Z,28.89
2024-01-03T10:05:25.183Z,28.90
2024-01-03T10:06:25.171Z,28.93
2024-01-03T10:07:25.108Z,28.96
2024-01-03T10:08:25.116Z,28.99
2024-01-03T10:09:25.087Z,29.03
2024-01-03T10:10:25.068Z,29.03
2024-01-03T10:11:25.118Z,29.06
2024-01-03T10:12:25.112Z,29.09
2024-01-03T10:13:25.194Z,29.14
2024-01-03T10:14:25.244Z,29.16
2024-01-03T10:15:25.317Z,29.21
2024-01-03T10:16:25.358Z,29.24
2024-01-03T10:17:25.464Z,29.28
2024-01-03T10:18:27.792Z,29.34
2024-01-03T10:19:25.609Z,29.37
2024-01-03T10:20:25.457Z,29.38
2024-01-03T10:21:25.474Z,29.37
2024-01-03T10:22:25.463Z,29.38
2024-01-03T10:23:25.440Z,29.37
2024-01-03T10:24:25.422Z,29.37
2024-01-03T10:25:25.491Z,29.34
2024-01-03T10:26:25.486Z,29.34
2024-01-03T10:27:25.510Z,29.30
2024-01-03T10:28:25.462Z,29.28
2024-01-03T10:29:25.526Z,29.27
2024-01-03T10:30:25.505Z,29.22
2024-01-03T10:31:25.463Z,29.22
2024-01-03T10:32:25.569Z,29.21
2024-01-03T10:33:25.577Z,29.16
2024-01-03T10:34:26.802Z,29.16
2024-01-03T10:35:25.500Z,29.13
2024-01-03T10:36:25.490Z,29.13
2024-01-03T10:37:25.495Z,29.11
2024-01-03T10:38:25.437Z,29.07
2024-01-03T10:39:25.439Z,29.04
2024-01-03T10:40:25.444Z,29.03
2024-01-03T10:41:25.532Z,29.03
2024-01-03T10:42:25.502Z,29.03
2024-01-03T10:43:25.566Z,29.00
2024-01-03T10:44:25.641Z,28.99
2024-01-03T10:45:25.685Z,28.99
2024-01-03T10:46:25.731Z,28.99
2024-01-03T10:47:25.834Z,28.97
2024-01-03T10:48:26.000Z,28.99
2024-01-03T10:49:26.051Z,28.96
2024-01-03T10:50:26.055Z,28.97
2024-01-03T10:51:26.085Z,28.94
2024-01-03T10:52:26.070Z,28.97
2024-01-03T10:53:26.213Z,28.97
2024-01-03T10:54:26.170Z,28.94
2024-01-03T10:55:26.208Z,28.97
2024-01-03T10:56:26.256Z,28.97
2024-01-03T10:57:27.812Z,28.97
2024-01-03T10:58:26.535Z,28.97
2024-01-03T10:59:26.481Z,28.96
2024-01-03T11:00:26.546Z,28.96
2024-01-03T11:01:26.624Z,28.96
2024-01-03T11:02:26.696Z,28.99
2024-01-03T11:03:26.758Z,28.99
2024-01-03T11:04:26.773Z,28.94
2024-01-03T11:05:27.034Z,28.94
2024-01-03T11:06:26.994Z,28.96
2024-01-03T11:07:26.970Z,28.96
2024-01-03T11:08:27.054Z,28.97
2024-01-03T11:09:28.211Z,28.94
2024-01-03T11:10:27.187Z,28.97
2024-01-03T11:11:27.204Z,28.97
2024-01-03T11:12:27.250Z,28.96
2024-01-03T11:13:27.304Z,28.97
2024-01-03T11:14:27.400Z,28.96
2024-01-03T11:15:37.888Z,28.97
2024-01-03T11:16:28.399Z,28.96
2024-01-03T11:17:27.520Z,28.94
2024-01-03T11:18:27.542Z,28.93
2024-01-03T11:19:27.619Z,28.97
2024-01-03T11:20:27.429Z,28.94
2024-01-03T11:21:27.459Z,28.91
2024-01-03T11:22:27.437Z,28.93
2024-01-03T11:23:27.449Z,28.91
2024-01-03T11:24:27.432Z,28.90
2024-01-03T11:25:27.447Z,28.90
2024-01-03T11:26:27.502Z,28.90
2024-01-03T11:27:27.549Z,28.89
2024-01-03T11:28:27.617Z,28.89
2024-01-03T11:29:27.638Z,28.89
2024-01-03T11:30:27.785Z,28.89
2024-01-03T11:31:28.430Z,28.89
2024-01-03T11:32:27.865Z,28.89
2024-01-03T11:33:27.958Z,28.89
2024-01-03T11:34:27.965Z,28.86
2024-01-03T11:35:27.942Z,28.86
2024-01-03T11:36:27.927Z,28.87
2024-01-03T11:37:28.029Z,28.89
2024-01-03T11:38:28.170Z,28.90
2024-01-03T11:39:28.106Z,28.89
2024-01-03T11:40:28.156Z,28.91
2024-01-03T11:41:28.235Z,28.94
2024-01-03T11:42:28.273Z,28.96
2024-01-03T11:43:28.282Z,28.96
2024-01-03T11:44:28.363Z,28.93
2024-01-03T11:45:28.419Z,28.96
2024-01-03T11:46:28.457Z,28.96
2024-01-03T11:47:28.587Z,29.00
2024-01-03T11:48:28.800Z,29.01
2024-01-03T11:49:28.764Z,29.03
2024-01-03T11:50:28.665Z,29.01
2024-01-03T11:51:28.688Z,29.06
2024-01-03T11:52:28.758Z,29.06
2024-01-03T11:53:28.844Z,29.04
2024-01-03T11:54:28.863Z,29.03
2024-01-03T11:55:28.931Z,29.06
2024-01-03T11:56:29.115Z,29.06
2024-01-03T11:57:28.986Z,29.07
2024-01-03T11:58:29.047Z,29.04
2024-01-03T11:59:29.157Z,29.06
2024-01-03T12:00:29.201Z,29.03
2024-01-03T12:01:29.245Z,29.01
2024-01-03T12:02:29.283Z,29.06
2024-01-03T12:03:29.715Z,29.00
2024-01-03T12:04:29.381Z,29.01
2024-01-03T12:05:29.632Z,28.99
2024-01-03T12:06:29.468Z,28.96
2024-01-03T12:07:29.472Z,28.96
2024-01-03T12:08:29.562Z,28.91
2024-01-03T12:09:29.586Z,28.90
2024-01-03T12:10:29.687Z,28.86
2024-01-03T12:11:29.653Z,28.83
2024-01-03T12:12:29.652Z,28.77
2024-01-03T12:13:29.729Z,28.74
2024-01-03T12:14:29.794Z,28.73
2024-01-03T12:15:38.918Z,28.69
2024-01-03T12:16:31.420Z,28.66
2024-01-03T12:17:30.003Z,28.63
2024-01-03T12:18:29.925Z,28.64
2024-01-03T12:19:29.901Z,28.62
2024-01-03T12:20:29.909Z,28.63
2024-01-03T12:21:29.840Z,28.62
2024-01-03T12:22:29.822Z,28.63
2024-01-03T12:23:29.964Z,28.60
2024-01-03T12:24:29.841Z,28.60
2024-01-03T12:25:29.835Z,28.60
2024-01-03T12:26:29.865Z,28.57
2024-01-03T12:27:29.816Z,28.59
2024-01-03T12:28:29.825Z,28.59
2024-01-03T12:29:29.898Z,28.59
2024-01-03T12:30:29.993Z,28.56
2024-01-03T12:31:30.083Z,28.57
2024-01-03T12:32:30.060Z,28.57
2024-01-03T12:33:30.202Z,28.57
2024-01-03T12:34:30.218Z,28.60
2024-01-03T12:35:30.191Z,28.62
2024-01-03T12:36:30.191Z,28.62
2024-01-03T12:37:30.268Z,28.64
2024-01-03T12:38:30.323Z,28.62
2024-01-03T12:39:30.370Z,28.60
2024-01-03T12:40:30.446Z,28.60
2024-01-03T12:41:30.535Z,28.62
2024-01-03T12:42:39.490Z,28.59
2024-01-03T12:43:31.508Z,28.59
2024-01-03T12:44:30.592Z,28.59
2024-01-03T12:45:30.558Z,28.59
2024-01-03T12:46:30.566Z,28.60
2024-01-03T12:47:30.604Z,28.59
2024-01-03T12:48:30.670Z,28.57
2024-01-03T12:49:30.568Z,28.57
2024-01-03T12:50:30.580Z,28.59
2024-01-03T12:51:36.940Z,28.59
2024-01-03T12:52:31.526Z,28.57
2024-01-03T12:53:30.597Z,28.55